sensor_id;sensor_type;location;lat;lon;timestamp;P1;durP1;ratioP1;P2;durP2;ratioP2
21258;SDS011;10787;53.364;-1.480;2023-01-15T00:01:38;5.37;;;1.40;;
21258;SDS011;10787;53.364;-1.480;2023-01-15T00:04:05;6.17;;;1.30;;
21258;SDS011;10787;53.364;-1.480;2023-01-15T00:06:36;4.47;;;0.97;;
21258;SDS011;10787;53.364;-1.480;2023-01-15T00:09:05;5.67;;;1.10;;
21258;SDS011;10787;53.364;-1.480;2023-01-15T00:11:32;6.23;;;1.50;;
21258;SDS011;10787;53.364;-1.480;2023-01-15T00:13:58;6.20;;;1.37;;
21258;SDS011;10787;53.364;-1.480;2023-01-15T00:16:24;4.83;;;1.40;;
21258;SDS011;10787;53.364;-1.480;2023-01-15T00:18:53;4.43;;;1.27;;
21258;SDS011;10787;53.364;-1.480;2023-01-15T00:21:23;3.70;;;1.13;;
21258;SDS011;10787;53.364;-1.480;2023-01-15T00:23:51;4.10;;;1.20;;
21258;SDS011;10787;53.364;-1.480;2023-01-15T00:26:35;6.63;;;1.50;;
21258;SDS011;10787;53.364;-1.480;2023-01-15T00:29:21;5.43;;;1.13;;
21258;SDS011;10787;53.364;-1.480;2023-01-15T00:31:57;6.50;;;1.57;;
21258;SDS011;10787;53.364;-1.480;2023-01-15T00:34:27;5.07;;;1.30;;
21258;SDS011;10787;53.364;-1.480;2023-01-15T00:36:54;5.63;;;1.43;;
21258;SDS011;10787;53.364;-1.480;2023-01-15T00:39:19;6.33;;;1.30;;
21258;SDS011;10787;53.364;-1.480;2023-01-15T00:41:46;4.57;;;1.40;;
21258;SDS011;10787;53.364;-1.480;2023-01-15T00:44:12;7.53;;;1.27;;
21258;SDS011;10787;53.364;-1.480;2023-01-15T00:46:38;5.83;;;1.20;;
21258;SDS011;10787;53.364;-1.480;2023-01-15T00:49:04;3.97;;;1.20;;
21258;SDS011;10787;53.364;-1.480;2023-01-15T00:51:30;5.97;;;1.17;;
21258;SDS011;10787;53.364;-1.480;2023-01-15T00:53:56;6.40;;;1.17;;
21258;SDS011;10787;53.364;-1.480;2023-01-15T00:56:22;6.60;;;1.20;;
21258;SDS011;10787;53.364;-1.480;2023-01-15T00:58:49;6.83;;;1.20;;
21258;SDS011;10787;53.364;-1.480;2023-01-15T01:01:15;4.43;;;1.13;;
21258;SDS011;10787;53.364;-1.480;2023-01-15T01:03:41;5.30;;;1.10;;
21258;SDS011;10787;53.364;-1.480;2023-01-15T01:06:07;4.90;;;1.10;;
21258;SDS011;10787;53.364;-1.480;2023-01-15T01:08:34;5.07;;;1.00;;
21258;SDS011;10787;53.364;-1.480;2023-01-15T01:11:01;5.77;;;1.27;;
21258;SDS011;10787;53.364;-1.480;2023-01-15T01:13:32;6.03;;;1.10;;
21258;SDS011;10787;53.364;-1.480;2023-01-15T01:15:59;2.93;;;0.80;;
21258;SDS011;10787;53.364;-1.480;2023-01-15T01:18:25;7.07;;;1.10;;
21258;SDS011;10787;53.364;-1.480;2023-01-15T01:20:51;6.30;;;0.87;;
21258;SDS011;10787;53.364;-1.480;2023-01-15T01:23:17;2.50;;;0.70;;
21258;SDS011;10787;53.364;-1.480;2023-01-15T01:25:44;5.40;;;1.07;;
21258;SDS011;10787;53.364;-1.480;2023-01-15T01:28:10;6.50;;;1.17;;
21258;SDS011;10787;53.364;-1.480;2023-01-15T01:30:39;6.70;;;1.00;;
21258;SDS011;10787;53.364;-1.480;2023-01-15T01:33:06;4.73;;;1.10;;
21258;SDS011;10787;53.364;-1.480;2023-01-15T01:35:32;5.17;;;1.00;;
21258;SDS011;10787;53.364;-1.480;2023-01-15T01:37:58;7.23;;;1.40;;
21258;SDS011;10787;53.364;-1.480;2023-01-15T01:40:23;5.87;;;1.20;;
21258;SDS011;10787;53.364;-1.480;2023-01-15T01:42:49;5.10;;;1.10;;
21258;SDS011;10787;53.364;-1.480;2023-01-15T01:45:25;8.50;;;1.20;;
21258;SDS011;10787;53.364;-1.480;2023-01-15T01:47:56;3.63;;;1.00;;
21258;SDS011;10787;53.364;-1.480;2023-01-15T01:50:26;9.37;;;1.40;;
21258;SDS011;10787;53.364;-1.480;2023-01-15T01:52:55;5.67;;;1.17;;
21258;SDS011;10787;53.364;-1.480;2023-01-15T01:55:28;8.00;;;1.37;;
21258;SDS011;10787;53.364;-1.480;2023-01-15T01:57:57;6.80;;;1.20;;
21258;SDS011;10787;53.364;-1.480;2023-01-15T02:00:25;5.70;;;1.23;;
21258;SDS011;10787;53.364;-1.480;2023-01-15T02:02:52;4.70;;;1.10;;
21258;SDS011;10787;53.364;-1.480;2023-01-15T02:05:25;6.67;;;1.40;;
21258;SDS011;10787;53.364;-1.480;2023-01-15T02:07:54;5.13;;;1.03;;
21258;SDS011;10787;53.364;-1.480;2023-01-15T02:10:20;5.90;;;0.90;;
21258;SDS011;10787;53.364;-1.480;2023-01-15T02:13:12;5.67;;;1.20;;
21258;SDS011;10787;53.364;-1.480;2023-01-15T02:15:44;3.03;;;0.90;;
21258;SDS011;10787;53.364;-1.480;2023-01-15T02:21:20;7.30;;;0.90;;
21258;SDS011;10787;53.364;-1.480;2023-01-15T02:26:53;5.57;;;1.00;;
21258;SDS011;10787;53.364;-1.480;2023-01-15T02:29:28;4.43;;;1.10;;
21258;SDS011;10787;53.364;-1.480;2023-01-15T02:32:07;5.87;;;1.10;;
21258;SDS011;10787;53.364;-1.480;2023-01-15T02:34:38;5.33;;;1.07;;
21258;SDS011;10787;53.364;-1.480;2023-01-15T02:37:19;6.63;;;1.00;;
21258;SDS011;10787;53.364;-1.480;2023-01-15T02:39:49;4.70;;;1.00;;
21258;SDS011;10787;53.364;-1.480;2023-01-15T02:42:16;5.73;;;1.00;;
21258;SDS011;10787;53.364;-1.480;2023-01-15T02:44:46;3.80;;;1.00;;
21258;SDS011;10787;53.364;-1.480;2023-01-15T02:47:17;5.90;;;1.03;;
21258;SDS011;10787;53.364;-1.480;2023-01-15T02:49:46;3.33;;;0.80;;
21258;SDS011;10787;53.364;-1.480;2023-01-15T02:52:16;4.10;;;1.10;;
21258;SDS011;10787;53.364;-1.480;2023-01-15T02:54:50;6.13;;;1.40;;
21258;SDS011;10787;53.364;-1.480;2023-01-15T02:57:24;4.70;;;0.90;;
21258;SDS011;10787;53.364;-1.480;2023-01-15T02:59:53;5.73;;;1.00;;
21258;SDS011;10787;53.364;-1.480;2023-01-15T03:02:24;4.30;;;1.00;;
21258;SDS011;10787;53.364;-1.480;2023-01-15T03:05:10;6.90;;;0.93;;
21258;SDS011;10787;53.364;-1.480;2023-01-15T03:07:53;5.57;;;0.90;;
21258;SDS011;10787;53.364;-1.480;2023-01-15T03:10:23;6.63;;;1.07;;
21258;SDS011;10787;53.364;-1.480;2023-01-15T03:13:02;5.87;;;1.07;;
21258;SDS011;10787;53.364;-1.480;2023-01-15T03:18:27;6.30;;;0.90;;
21258;SDS011;10787;53.364;-1.480;2023-01-15T03:20:58;5.47;;;0.90;;
21258;SDS011;10787;53.364;-1.480;2023-01-15T03:23:28;4.87;;;1.20;;
21258;SDS011;10787;53.364;-1.480;2023-01-15T03:25:55;4.57;;;1.10;;
21258;SDS011;10787;53.364;-1.480;2023-01-15T03:28:25;4.93;;;1.00;;
21258;SDS011;10787;53.364;-1.480;2023-01-15T03:30:55;3.87;;;0.90;;
21258;SDS011;10787;53.364;-1.480;2023-01-15T03:33:23;6.27;;;1.10;;
21258;SDS011;10787;53.364;-1.480;2023-01-15T03:35:51;5.60;;;0.90;;
21258;SDS011;10787;53.364;-1.480;2023-01-15T03:38:22;5.80;;;1.03;;
21258;SDS011;10787;53.364;-1.480;2023-01-15T03:40:56;5.93;;;1.40;;
21258;SDS011;10787;53.364;-1.480;2023-01-15T03:44:13;7.00;;;1.00;;
21258;SDS011;10787;53.364;-1.480;2023-01-15T03:51:59;3.13;;;0.90;;
21258;SDS011;10787;53.364;-1.480;2023-01-15T03:57:12;6.67;;;1.07;;
21258;SDS011;10787;53.364;-1.480;2023-01-15T03:59:55;5.27;;;1.10;;
21258;SDS011;10787;53.364;-1.480;2023-01-15T04:02:25;5.40;;;1.00;;
21258;SDS011;10787;53.364;-1.480;2023-01-15T04:04:53;5.73;;;1.20;;
21258;SDS011;10787;53.364;-1.480;2023-01-15T04:07:22;3.73;;;0.97;;
21258;SDS011;10787;53.364;-1.480;2023-01-15T04:09:49;4.40;;;0.90;;
21258;SDS011;10787;53.364;-1.480;2023-01-15T04:12:15;4.07;;;1.23;;
21258;SDS011;10787;53.364;-1.480;2023-01-15T04:14:41;3.73;;;1.00;;
21258;SDS011;10787;53.364;-1.480;2023-01-15T04:17:07;4.90;;;1.00;;
21258;SDS011;10787;53.364;-1.480;2023-01-15T04:19:33;3.60;;;1.10;;
21258;SDS011;10787;53.364;-1.480;2023-01-15T04:21:58;4.83;;;0.90;;
21258;SDS011;10787;53.364;-1.480;2023-01-15T04:24:24;6.47;;;0.93;;
21258;SDS011;10787;53.364;-1.480;2023-01-15T04:26:50;3.27;;;0.80;;
21258;SDS011;10787;53.364;-1.480;2023-01-15T04:29:17;4.50;;;1.00;;
21258;SDS011;10787;53.364;-1.480;2023-01-15T04:31:43;4.93;;;0.90;;
21258;SDS011;10787;53.364;-1.480;2023-01-15T04:34:09;4.80;;;0.97;;
21258;SDS011;10787;53.364;-1.480;2023-01-15T04:36:39;3.93;;;0.90;;
21258;SDS011;10787;53.364;-1.480;2023-01-15T04:39:06;3.70;;;0.80;;
21258;SDS011;10787;53.364;-1.480;2023-01-15T04:41:34;3.73;;;0.60;;
21258;SDS011;10787;53.364;-1.480;2023-01-15T04:44:18;4.90;;;0.80;;
21258;SDS011;10787;53.364;-1.480;2023-01-15T04:46:44;4.33;;;0.90;;
21258;SDS011;10787;53.364;-1.480;2023-01-15T04:49:15;3.97;;;0.67;;
21258;SDS011;10787;53.364;-1.480;2023-01-15T04:51:42;3.50;;;0.70;;
21258;SDS011;10787;53.364;-1.480;2023-01-15T04:54:10;6.60;;;1.17;;
21258;SDS011;10787;53.364;-1.480;2023-01-15T04:56:40;5.43;;;0.80;;
21258;SDS011;10787;53.364;-1.480;2023-01-15T04:59:09;3.67;;;0.80;;
21258;SDS011;10787;53.364;-1.480;2023-01-15T05:01:35;4.63;;;0.83;;
21258;SDS011;10787;53.364;-1.480;2023-01-15T05:04:02;5.20;;;0.80;;
21258;SDS011;10787;53.364;-1.480;2023-01-15T05:06:28;2.00;;;0.50;;
21258;SDS011;10787;53.364;-1.480;2023-01-15T05:08:58;4.07;;;0.90;;
21258;SDS011;10787;53.364;-1.480;2023-01-15T05:11:24;3.00;;;0.70;;
21258;SDS011;10787;53.364;-1.480;2023-01-15T05:13:52;2.50;;;0.70;;
21258;SDS011;10787;53.364;-1.480;2023-01-15T05:16:22;3.97;;;0.70;;
21258;SDS011;10787;53.364;-1.480;2023-01-15T05:18:49;4.13;;;0.93;;
21258;SDS011;10787;53.364;-1.480;2023-01-15T05:21:19;5.27;;;0.80;;
21258;SDS011;10787;53.364;-1.480;2023-01-15T05:23:47;4.00;;;0.80;;
21258;SDS011;10787;53.364;-1.480;2023-01-15T05:26:14;4.40;;;0.70;;
21258;SDS011;10787;53.364;-1.480;2023-01-15T05:28:41;4.40;;;0.70;;
21258;SDS011;10787;53.364;-1.480;2023-01-15T05:31:08;3.67;;;0.73;;
21258;SDS011;10787;53.364;-1.480;2023-01-15T05:33:35;8.07;;;1.10;;
21258;SDS011;10787;53.364;-1.480;2023-01-15T05:36:03;3.83;;;0.70;;
21258;SDS011;10787;53.364;-1.480;2023-01-15T05:38:31;3.93;;;0.90;;
21258;SDS011;10787;53.364;-1.480;2023-01-15T05:40:57;2.60;;;0.77;;
21258;SDS011;10787;53.364;-1.480;2023-01-15T05:43:24;2.93;;;0.70;;
21258;SDS011;10787;53.364;-1.480;2023-01-15T05:45:50;2.10;;;0.80;;
21258;SDS011;10787;53.364;-1.480;2023-01-15T05:48:16;5.23;;;0.70;;
21258;SDS011;10787;53.364;-1.480;2023-01-15T05:50:41;4.43;;;0.63;;
21258;SDS011;10787;53.364;-1.480;2023-01-15T05:53:09;1.47;;;0.77;;
21258;SDS011;10787;53.364;-1.480;2023-01-15T05:55:34;4.13;;;0.87;;
21258;SDS011;10787;53.364;-1.480;2023-01-15T05:58:00;4.23;;;0.77;;
21258;SDS011;10787;53.364;-1.480;2023-01-15T06:00:27;5.10;;;0.80;;
21258;SDS011;10787;53.364;-1.480;2023-01-15T06:02:53;4.50;;;0.90;;
21258;SDS011;10787;53.364;-1.480;2023-01-15T06:05:21;4.97;;;0.90;;
21258;SDS011;10787;53.364;-1.480;2023-01-15T06:07:47;3.20;;;0.77;;
21258;SDS011;10787;53.364;-1.480;2023-01-15T06:10:17;2.77;;;0.60;;
21258;SDS011;10787;53.364;-1.480;2023-01-15T06:12:43;3.20;;;0.83;;
21258;SDS011;10787;53.364;-1.480;2023-01-15T06:15:10;3.83;;;0.60;;
21258;SDS011;10787;53.364;-1.480;2023-01-15T06:17:36;2.60;;;0.80;;
21258;SDS011;10787;53.364;-1.480;2023-01-15T06:20:02;5.40;;;0.70;;
21258;SDS011;10787;53.364;-1.480;2023-01-15T06:22:29;3.00;;;0.60;;
21258;SDS011;10787;53.364;-1.480;2023-01-15T06:24:55;5.63;;;0.80;;
21258;SDS011;10787;53.364;-1.480;2023-01-15T06:27:20;5.47;;;0.80;;
21258;SDS011;10787;53.364;-1.480;2023-01-15T06:29:46;6.13;;;0.80;;
21258;SDS011;10787;53.364;-1.480;2023-01-15T06:32:12;4.90;;;0.90;;
21258;SDS011;10787;53.364;-1.480;2023-01-15T06:34:39;4.87;;;0.80;;
21258;SDS011;10787;53.364;-1.480;2023-01-15T06:37:07;3.53;;;0.80;;
21258;SDS011;10787;53.364;-1.480;2023-01-15T06:39:34;3.97;;;0.93;;
21258;SDS011;10787;53.364;-1.480;2023-01-15T06:41:59;3.07;;;0.60;;
21258;SDS011;10787;53.364;-1.480;2023-01-15T06:44:44;4.07;;;0.70;;
21258;SDS011;10787;53.364;-1.480;2023-01-15T06:47:28;2.43;;;0.77;;
21258;SDS011;10787;53.364;-1.480;2023-01-15T06:49:55;3.30;;;0.70;;
21258;SDS011;10787;53.364;-1.480;2023-01-15T06:52:25;7.10;;;1.00;;
21258;SDS011;10787;53.364;-1.480;2023-01-15T06:54:52;7.17;;;1.00;;
21258;SDS011;10787;53.364;-1.480;2023-01-15T06:57:18;4.03;;;0.90;;
21258;SDS011;10787;53.364;-1.480;2023-01-15T06:59:45;6.20;;;1.10;;
21258;SDS011;10787;53.364;-1.480;2023-01-15T07:02:11;4.23;;;1.03;;
21258;SDS011;10787;53.364;-1.480;2023-01-15T07:04:37;4.13;;;0.93;;
21258;SDS011;10787;53.364;-1.480;2023-01-15T07:07:03;5.90;;;1.30;;
21258;SDS011;10787;53.364;-1.480;2023-01-15T07:09:29;6.53;;;1.27;;
21258;SDS011;10787;53.364;-1.480;2023-01-15T07:11:55;2.97;;;0.70;;
21258;SDS011;10787;53.364;-1.480;2023-01-15T07:14:23;5.30;;;1.20;;
21258;SDS011;10787;53.364;-1.480;2023-01-15T07:16:50;4.70;;;1.10;;
21258;SDS011;10787;53.364;-1.480;2023-01-15T07:19:17;5.67;;;1.30;;
21258;SDS011;10787;53.364;-1.480;2023-01-15T07:21:44;5.20;;;1.30;;
21258;SDS011;10787;53.364;-1.480;2023-01-15T07:24:10;7.63;;;1.30;;
21258;SDS011;10787;53.364;-1.480;2023-01-15T07:26:37;5.10;;;1.67;;
21258;SDS011;10787;53.364;-1.480;2023-01-15T07:29:04;3.23;;;1.60;;
21258;SDS011;10787;53.364;-1.480;2023-01-15T07:31:30;4.87;;;1.90;;
21258;SDS011;10787;53.364;-1.480;2023-01-15T07:33:57;5.20;;;2.20;;
21258;SDS011;10787;53.364;-1.480;2023-01-15T07:36:23;5.00;;;2.50;;
21258;SDS011;10787;53.364;-1.480;2023-01-15T07:38:50;6.30;;;2.43;;
21258;SDS011;10787;53.364;-1.480;2023-01-15T07:41:16;5.70;;;2.50;;
21258;SDS011;10787;53.364;-1.480;2023-01-15T07:44:01;3.53;;;2.23;;
21258;SDS011;10787;53.364;-1.480;2023-01-15T07:46:45;5.57;;;2.90;;
21258;SDS011;10787;53.364;-1.480;2023-01-15T07:49:30;5.43;;;3.00;;
21258;SDS011;10787;53.364;-1.480;2023-01-15T07:52:15;4.87;;;3.10;;
21258;SDS011;10787;53.364;-1.480;2023-01-15T07:54:43;6.10;;;3.03;;
21258;SDS011;10787;53.364;-1.480;2023-01-15T07:57:10;4.93;;;2.70;;
21258;SDS011;10787;53.364;-1.480;2023-01-15T07:59:37;7.33;;;3.10;;
21258;SDS011;10787;53.364;-1.480;2023-01-15T08:02:03;126.40;;;9.83;;
21258;SDS011;10787;53.364;-1.480;2023-01-15T08:04:30;54.70;;;5.67;;
21258;SDS011;10787;53.364;-1.480;2023-01-15T08:06:57;6.67;;;3.10;;
21258;SDS011;10787;53.364;-1.480;2023-01-15T08:09:24;5.40;;;2.80;;
21258;SDS011;10787;53.364;-1.480;2023-01-15T08:11:50;161.73;;;10.43;;
21258;SDS011;10787;53.364;-1.480;2023-01-15T08:14:35;6.43;;;2.67;;
21258;SDS011;10787;53.364;-1.480;2023-01-15T08:17:20;148.13;;;10.37;;
21258;SDS011;10787;53.364;-1.480;2023-01-15T08:19:45;3.03;;;1.67;;
21258;SDS011;10787;53.364;-1.480;2023-01-15T08:22:11;3.30;;;1.27;;
21258;SDS011;10787;53.364;-1.480;2023-01-15T08:24:37;5.77;;;1.47;;
21258;SDS011;10787;53.364;-1.480;2023-01-15T08:27:03;5.57;;;1.30;;
21258;SDS011;10787;53.364;-1.480;2023-01-15T08:29:29;10.60;;;1.60;;
21258;SDS011;10787;53.364;-1.480;2023-01-15T08:31:55;2.47;;;0.87;;
21258;SDS011;10787;53.364;-1.480;2023-01-15T08:34:21;72.53;;;4.13;;
21258;SDS011;10787;53.364;-1.480;2023-01-15T08:36:48;54.23;;;3.77;;
21258;SDS011;10787;53.364;-1.480;2023-01-15T08:39:17;1.87;;;0.90;;
21258;SDS011;10787;53.364;-1.480;2023-01-15T08:41:43;2.37;;;0.70;;
21258;SDS011;10787;53.364;-1.480;2023-01-15T08:44:09;2.00;;;0.70;;
21258;SDS011;10787;53.364;-1.480;2023-01-15T08:46:35;1.13;;;0.53;;
21258;SDS011;10787;53.364;-1.480;2023-01-15T08:49:01;31.67;;;1.57;;
21258;SDS011;10787;53.364;-1.480;2023-01-15T08:51:27;0.60;;;0.30;;
21258;SDS011;10787;53.364;-1.480;2023-01-15T08:53:53;0.60;;;0.50;;
21258;SDS011;10787;53.364;-1.480;2023-01-15T08:56:19;1.43;;;0.60;;
21258;SDS011;10787;53.364;-1.480;2023-01-15T08:58:45;0.87;;;0.50;;
21258;SDS011;10787;53.364;-1.480;2023-01-15T09:01:14;2.10;;;0.57;;
21258;SDS011;10787;53.364;-1.480;2023-01-15T09:03:40;10.17;;;0.90;;
21258;SDS011;10787;53.364;-1.480;2023-01-15T09:06:08;1.13;;;0.50;;
21258;SDS011;10787;53.364;-1.480;2023-01-15T09:08:35;1.43;;;0.60;;
21258;SDS011;10787;53.364;-1.480;2023-01-15T09:11:02;18.57;;;1.27;;
21258;SDS011;10787;53.364;-1.480;2023-01-15T09:13:29;1.57;;;0.57;;
21258;SDS011;10787;53.364;-1.480;2023-01-15T09:15:59;0.80;;;0.60;;
21258;SDS011;10787;53.364;-1.480;2023-01-15T09:18:25;10.40;;;0.97;;
21258;SDS011;10787;53.364;-1.480;2023-01-15T09:20:51;2.17;;;0.40;;
21258;SDS011;10787;53.364;-1.480;2023-01-15T09:23:17;0.60;;;0.40;;
21258;SDS011;10787;53.364;-1.480;2023-01-15T09:28:26;1.03;;;0.37;;
21258;SDS011;10787;53.364;-1.480;2023-01-15T09:30:53;12.97;;;0.87;;
21258;SDS011;10787;53.364;-1.480;2023-01-15T09:33:19;3.17;;;0.53;;
21258;SDS011;10787;53.364;-1.480;2023-01-15T09:35:45;1.10;;;0.50;;
21258;SDS011;10787;53.364;-1.480;2023-01-15T09:38:12;0.83;;;0.50;;
21258;SDS011;10787;53.364;-1.480;2023-01-15T09:51:22;1.70;;;0.40;;
21258;SDS011;10787;53.364;-1.480;2023-01-15T09:56:47;0.80;;;0.40;;
21258;SDS011;10787;53.364;-1.480;2023-01-15T10:01:52;6.10;;;0.73;;
21258;SDS011;10787;53.364;-1.480;2023-01-15T10:07:02;0.40;;;0.30;;
21258;SDS011;10787;53.364;-1.480;2023-01-15T10:09:37;0.50;;;0.30;;
21258;SDS011;10787;53.364;-1.480;2023-01-15T10:12:12;0.40;;;0.30;;
21258;SDS011;10787;53.364;-1.480;2023-01-15T10:15:19;0.73;;;0.30;;
21258;SDS011;10787;53.364;-1.480;2023-01-15T10:17:51;1.00;;;0.83;;
21258;SDS011;10787;53.364;-1.480;2023-01-15T10:25:49;1.37;;;0.90;;
21258;SDS011;10787;53.364;-1.480;2023-01-15T10:28:29;3.47;;;1.10;;
21258;SDS011;10787;53.364;-1.480;2023-01-15T10:31:39;2.40;;;0.90;;
21258;SDS011;10787;53.364;-1.480;2023-01-15T10:36:44;2.47;;;1.00;;
21258;SDS011;10787;53.364;-1.480;2023-01-15T10:39:22;2.53;;;1.27;;
21258;SDS011;10787;53.364;-1.480;2023-01-15T10:42:13;3.23;;;1.57;;
21258;SDS011;10787;53.364;-1.480;2023-01-15T10:45:06;5.17;;;1.50;;
21258;SDS011;10787;53.364;-1.480;2023-01-15T10:47:45;2.93;;;1.53;;
21258;SDS011;10787;53.364;-1.480;2023-01-15T10:50:20;3.73;;;1.70;;
21258;SDS011;10787;53.364;-1.480;2023-01-15T10:55:47;5.27;;;2.27;;
21258;SDS011;10787;53.364;-1.480;2023-01-15T11:00:49;5.77;;;3.13;;
21258;SDS011;10787;53.364;-1.480;2023-01-15T11:03:25;6.63;;;4.13;;
21258;SDS011;10787;53.364;-1.480;2023-01-15T11:06:12;5.40;;;3.50;;
21258;SDS011;10787;53.364;-1.480;2023-01-15T11:08:41;7.00;;;2.83;;
21258;SDS011;10787;53.364;-1.480;2023-01-15T11:11:15;4.87;;;3.13;;
21258;SDS011;10787;53.364;-1.480;2023-01-15T11:13:52;6.40;;;3.40;;
21258;SDS011;10787;53.364;-1.480;2023-01-15T11:16:38;6.33;;;3.93;;
21258;SDS011;10787;53.364;-1.480;2023-01-15T11:19:26;6.10;;;4.20;;
21258;SDS011;10787;53.364;-1.480;2023-01-15T11:22:13;6.57;;;3.67;;
21258;SDS011;10787;53.364;-1.480;2023-01-15T11:24:51;5.97;;;3.97;;
21258;SDS011;10787;53.364;-1.480;2023-01-15T11:27:36;6.50;;;4.03;;
21258;SDS011;10787;53.364;-1.480;2023-01-15T11:30:24;5.33;;;3.30;;
21258;SDS011;10787;53.364;-1.480;2023-01-15T11:33:20;5.70;;;2.40;;
21258;SDS011;10787;53.364;-1.480;2023-01-15T11:35:57;4.80;;;1.90;;
21258;SDS011;10787;53.364;-1.480;2023-01-15T11:41:33;3.37;;;1.60;;
21258;SDS011;10787;53.364;-1.480;2023-01-15T11:44:21;3.03;;;1.73;;
21258;SDS011;10787;53.364;-1.480;2023-01-15T11:47:10;3.13;;;1.60;;
21258;SDS011;10787;53.364;-1.480;2023-01-15T11:49:55;3.17;;;1.50;;
21258;SDS011;10787;53.364;-1.480;2023-01-15T11:52:56;4.30;;;1.93;;
21258;SDS011;10787;53.364;-1.480;2023-01-15T11:55:38;4.10;;;1.77;;
21258;SDS011;10787;53.364;-1.480;2023-01-15T11:58:09;5.03;;;2.10;;
21258;SDS011;10787;53.364;-1.480;2023-01-15T12:00:43;3.63;;;2.17;;
21258;SDS011;10787;53.364;-1.480;2023-01-15T12:03:20;4.53;;;2.60;;
21258;SDS011;10787;53.364;-1.480;2023-01-15T12:13:52;6.90;;;2.87;;
21258;SDS011;10787;53.364;-1.480;2023-01-15T12:16:22;5.67;;;2.70;;
21258;SDS011;10787;53.364;-1.480;2023-01-15T12:18:55;4.93;;;2.50;;
21258;SDS011;10787;53.364;-1.480;2023-01-15T12:24:41;4.50;;;2.97;;
21258;SDS011;10787;53.364;-1.480;2023-01-15T12:30:39;8.67;;;4.40;;
21258;SDS011;10787;53.364;-1.480;2023-01-15T12:33:22;11.60;;;5.40;;
21258;SDS011;10787;53.364;-1.480;2023-01-15T12:36:06;9.50;;;5.43;;
21258;SDS011;10787;53.364;-1.480;2023-01-15T12:38:47;12.37;;;5.57;;
21258;SDS011;10787;53.364;-1.480;2023-01-15T12:41:38;12.87;;;5.30;;
21258;SDS011;10787;53.364;-1.480;2023-01-15T12:47:15;10.73;;;5.40;;
21258;SDS011;10787;53.364;-1.480;2023-01-15T12:49:47;8.60;;;5.30;;
21258;SDS011;10787;53.364;-1.480;2023-01-15T12:52:21;10.03;;;5.70;;
21258;SDS011;10787;53.364;-1.480;2023-01-15T12:55:01;11.90;;;6.40;;
21258;SDS011;10787;53.364;-1.480;2023-01-15T12:57:34;9.87;;;5.70;;
21258;SDS011;10787;53.364;-1.480;2023-01-15T13:05:49;9.87;;;5.00;;
21258;SDS011;10787;53.364;-1.480;2023-01-15T13:10:49;11.37;;;5.00;;
21258;SDS011;10787;53.364;-1.480;2023-01-15T13:13:21;14.63;;;4.67;;
21258;SDS011;10787;53.364;-1.480;2023-01-15T13:18:24;12.43;;;5.87;;
21258;SDS011;10787;53.364;-1.480;2023-01-15T13:21:10;12.90;;;5.50;;
21258;SDS011;10787;53.364;-1.480;2023-01-15T13:26:34;14.63;;;5.27;;
21258;SDS011;10787;53.364;-1.480;2023-01-15T13:29:42;9.53;;;4.33;;
21258;SDS011;10787;53.364;-1.480;2023-01-15T13:32:16;14.87;;;5.37;;
21258;SDS011;10787;53.364;-1.480;2023-01-15T13:34:58;14.97;;;4.70;;
21258;SDS011;10787;53.364;-1.480;2023-01-15T13:37:30;13.00;;;4.67;;
21258;SDS011;10787;53.364;-1.480;2023-01-15T13:40:13;13.40;;;4.43;;
21258;SDS011;10787;53.364;-1.480;2023-01-15T13:42:53;9.70;;;4.90;;
21258;SDS011;10787;53.364;-1.480;2023-01-15T13:50:50;13.93;;;5.30;;
21258;SDS011;10787;53.364;-1.480;2023-01-15T13:56:10;11.33;;;4.67;;
21258;SDS011;10787;53.364;-1.480;2023-01-15T13:58:39;8.53;;;4.37;;
21258;SDS011;10787;53.364;-1.480;2023-01-15T14:03:58;9.48;;;3.60;;
21258;SDS011;10787;53.364;-1.480;2023-01-15T14:06:35;10.90;;;4.33;;
21258;SDS011;10787;53.364;-1.480;2023-01-15T14:09:08;11.87;;;3.93;;
21258;SDS011;10787;53.364;-1.480;2023-01-15T14:12:00;7.53;;;3.40;;
21258;SDS011;10787;53.364;-1.480;2023-01-15T14:20:37;10.43;;;3.00;;
21258;SDS011;10787;53.364;-1.480;2023-01-15T14:23:13;9.32;;;3.60;;
21258;SDS011;10787;53.364;-1.480;2023-01-15T14:33:42;11.87;;;3.90;;
21258;SDS011;10787;53.364;-1.480;2023-01-15T14:36:16;16.13;;;5.40;;
21258;SDS011;10787;53.364;-1.480;2023-01-15T14:38:49;11.80;;;4.67;;
21258;SDS011;10787;53.364;-1.480;2023-01-15T14:41:52;13.20;;;5.23;;
21258;SDS011;10787;53.364;-1.480;2023-01-15T14:44:38;13.93;;;5.50;;
21258;SDS011;10787;53.364;-1.480;2023-01-15T14:47:10;13.10;;;4.80;;
21258;SDS011;10787;53.364;-1.480;2023-01-15T14:49:58;11.63;;;5.07;;
21258;SDS011;10787;53.364;-1.480;2023-01-15T14:52:27;21.80;;;8.77;;
21258;SDS011;10787;53.364;-1.480;2023-01-15T14:54:53;18.23;;;6.43;;
21258;SDS011;10787;53.364;-1.480;2023-01-15T14:57:21;11.83;;;4.43;;
21258;SDS011;10787;53.364;-1.480;2023-01-15T14:59:53;14.23;;;5.70;;
21258;SDS011;10787;53.364;-1.480;2023-01-15T15:02:28;10.43;;;4.07;;
21258;SDS011;10787;53.364;-1.480;2023-01-15T15:05:03;12.10;;;4.30;;
21258;SDS011;10787;53.364;-1.480;2023-01-15T15:07:35;12.53;;;4.03;;
21258;SDS011;10787;53.364;-1.480;2023-01-15T15:10:08;12.67;;;4.60;;
21258;SDS011;10787;53.364;-1.480;2023-01-15T15:13:05;16.77;;;5.10;;
21258;SDS011;10787;53.364;-1.480;2023-01-15T15:16:04;9.93;;;4.83;;
21258;SDS011;10787;53.364;-1.480;2023-01-15T15:18:43;13.47;;;4.33;;
21258;SDS011;10787;53.364;-1.480;2023-01-15T15:23:53;12.20;;;3.93;;
21258;SDS011;10787;53.364;-1.480;2023-01-15T15:26:25;20.53;;;9.80;;
21258;SDS011;10787;53.364;-1.480;2023-01-15T15:31:22;25.00;;;10.83;;
21258;SDS011;10787;53.364;-1.480;2023-01-15T15:33:51;18.53;;;8.40;;
21258;SDS011;10787;53.364;-1.480;2023-01-15T15:36:18;12.40;;;6.37;;
21258;SDS011;10787;53.364;-1.480;2023-01-15T15:38:55;13.37;;;6.53;;
21258;SDS011;10787;53.364;-1.480;2023-01-15T15:41:25;15.40;;;7.43;;
21258;SDS011;10787;53.364;-1.480;2023-01-15T15:44:24;14.40;;;6.37;;
21258;SDS011;10787;53.364;-1.480;2023-01-15T15:47:24;12.50;;;6.17;;
21258;SDS011;10787;53.364;-1.480;2023-01-15T15:50:20;13.93;;;6.47;;
21258;SDS011;10787;53.364;-1.480;2023-01-15T15:52:49;17.17;;;6.60;;
21258;SDS011;10787;53.364;-1.480;2023-01-15T15:55:17;21.23;;;8.87;;
21258;SDS011;10787;53.364;-1.480;2023-01-15T15:57:45;22.50;;;9.43;;
21258;SDS011;10787;53.364;-1.480;2023-01-15T16:00:16;34.87;;;13.70;;
21258;SDS011;10787;53.364;-1.480;2023-01-15T16:02:44;26.00;;;11.27;;
21258;SDS011;10787;53.364;-1.480;2023-01-15T16:07:43;24.30;;;11.67;;
21258;SDS011;10787;53.364;-1.480;2023-01-15T16:10:20;20.10;;;9.30;;
21258;SDS011;10787;53.364;-1.480;2023-01-15T16:12:53;20.00;;;7.70;;
21258;SDS011;10787;53.364;-1.480;2023-01-15T16:15:32;33.10;;;8.03;;
21258;SDS011;10787;53.364;-1.480;2023-01-15T16:18:02;12.67;;;6.20;;
21258;SDS011;10787;53.364;-1.480;2023-01-15T16:20:31;15.10;;;6.30;;
21258;SDS011;10787;53.364;-1.480;2023-01-15T16:22:58;14.90;;;6.50;;
21258;SDS011;10787;53.364;-1.480;2023-01-15T16:25:32;9.80;;;5.10;;
21258;SDS011;10787;53.364;-1.480;2023-01-15T16:28:01;12.50;;;5.23;;
21258;SDS011;10787;53.364;-1.480;2023-01-15T16:30:28;14.80;;;7.00;;
21258;SDS011;10787;53.364;-1.480;2023-01-15T16:32:59;17.43;;;6.87;;
21258;SDS011;10787;53.364;-1.480;2023-01-15T16:35:29;16.40;;;6.37;;
21258;SDS011;10787;53.364;-1.480;2023-01-15T16:37:59;16.67;;;7.40;;
21258;SDS011;10787;53.364;-1.480;2023-01-15T16:40:38;15.77;;;6.80;;
21258;SDS011;10787;53.364;-1.480;2023-01-15T16:43:08;14.20;;;7.87;;
21258;SDS011;10787;53.364;-1.480;2023-01-15T16:48:35;20.77;;;10.77;;
21258;SDS011;10787;53.364;-1.480;2023-01-15T16:53:55;22.63;;;9.90;;
21258;SDS011;10787;53.364;-1.480;2023-01-15T16:59:13;26.67;;;13.53;;
21258;SDS011;10787;53.364;-1.480;2023-01-15T17:01:42;24.93;;;12.30;;
21258;SDS011;10787;53.364;-1.480;2023-01-15T17:06:56;22.67;;;12.97;;
21258;SDS011;10787;53.364;-1.480;2023-01-15T17:09:29;38.13;;;21.57;;